Terminal Aerodrome Forecast
Issued by NWS Twin Cities, MN

Home | Current Version | Previous Version | Text Only | Print | Product List | Glossary On
Versions: 1 2 3 4 5 6 7 8 9 10 11 12 13 14 15 16 17 18 19 20 21 22 23 24 25 26 27 28
000
FTUS43 KMPX 191400 AAA
TAFMSP
TAF AMD
KMSP 191430Z 1915/2018 14019G29KT P6SM SCT070 BKN150
     FM191600 16017G27KT P6SM SCT060 BKN100
     FM191900 19014G24KT P6SM VCSH SCT040 OVC070
      TEMPO 1919/1923 6SM -SHRA BKN040
     FM200100 21006KT P6SM SCT060 BKN100
     FM200600 25005KT P6SM SCT100 BKN250
     FM201400 03004KT P6SM SCT250=

USA.gov is the U.S. government's official web portal to all federal, state and local government web resources and services.